Terminal Aerodrome Forecast
Issued by NWS

Current Version | Previous Version | Text Only | Print | Product List | Glossary Off
Versions: 1 2 3 4 5 6 7 8 9 10 11 12 13 14 15 16 17 18 19 20 21 22 23 24 25 26 27

000
FTUS41 KRLX 021700 AAC
TAFCKB
TAF AMD
KCKB 021718Z 0217/0312 23009G14KT P6SM VCTS BKN045CB
     FM021745 29012G22KT 2SM TSRA BR BKN025CB
     FM021900 23009KT P6SM OVC040
     FM022100 23010G15KT 5SM TSRA BR BKN040CB
     FM030000 24007KT 6SM BR VCTS BKN050CB
     FM030200 25004KT P6SM BKN080
     FM030400 00000KT 4SM BR SCT200
     FM030700 00000KT 1/4SM FG VV001=

USA.gov is the U.S. government's official web portal to all federal, state and local government web resources and services.